sensor_id;sensor_type;location;lat;lon;timestamp;pressure;altitude;pressure_sealevel;temperature;humidity
43125;BME280;49182;50.788;7.318;2024-01-07T00:02:51;100610.78;;;2.70;100.00
43125;BME280;49182;50.788;7.318;2024-01-07T00:07:54;100720.88;;;3.38;100.00
43125;BME280;49182;50.788;7.318;2024-01-07T00:12:55;100730.28;;;3.41;100.00
43125;BME280;49182;50.788;7.318;2024-01-07T00:17:58;100736.53;;;3.38;100.00
43125;BME280;49182;50.788;7.318;2024-01-07T00:23:01;100739.97;;;3.39;100.00
43125;BME280;49182;50.788;7.318;2024-01-07T00:28:04;100743.16;;;3.44;100.00
43125;BME280;49182;50.788;7.318;2024-01-07T00:33:06;100718.19;;;3.24;100.00
43125;BME280;49182;50.788;7.318;2024-01-07T00:38:09;100751.34;;;3.38;100.00
43125;BME280;49182;50.788;7.318;2024-01-07T00:43:11;100738.38;;;3.36;100.00
43125;BME280;49182;50.788;7.318;2024-01-07T00:48:14;100711.28;;;3.23;100.00
43125;BME280;49182;50.788;7.318;2024-01-07T00:53:17;100743.91;;;3.46;100.00
43125;BME280;49182;50.788;7.318;2024-01-07T00:58:19;100750.81;;;3.47;100.00
43125;BME280;49182;50.788;7.318;2024-01-07T01:03:20;100759.41;;;3.49;100.00
43125;BME280;49182;50.788;7.318;2024-01-07T01:08:24;100764.56;;;3.50;100.00
43125;BME280;49182;50.788;7.318;2024-01-07T01:13:25;100769.84;;;3.49;100.00
43125;BME280;49182;50.788;7.318;2024-01-07T01:18:27;100770.84;;;3.46;100.00
43125;BME280;49182;50.788;7.318;2024-01-07T01:23:30;100770.84;;;3.46;100.00
43125;BME280;49182;50.788;7.318;2024-01-07T01:28:32;100782.25;;;3.45;100.00
43125;BME280;49182;50.788;7.318;2024-01-07T01:33:34;100772.47;;;3.33;100.00
43125;BME280;49182;50.788;7.318;2024-01-07T01:38:37;100786.50;;;3.46;100.00
43125;BME280;49182;50.788;7.318;2024-01-07T01:43:39;100792.84;;;3.42;100.00
43125;BME280;49182;50.788;7.318;2024-01-07T01:48:41;100797.91;;;3.45;100.00
43125;BME280;49182;50.788;7.318;2024-01-07T01:53:44;100796.78;;;3.49;100.00
43125;BME280;49182;50.788;7.318;2024-01-07T01:58:46;100799.41;;;3.49;100.00
43125;BME280;49182;50.788;7.318;2024-01-07T02:03:48;100803.28;;;3.42;100.00
43125;BME280;49182;50.788;7.318;2024-01-07T02:08:51;100804.44;;;3.37;100.00
43125;BME280;49182;50.788;7.318;2024-01-07T02:13:53;100795.63;;;3.39;100.00
43125;BME280;49182;50.788;7.318;2024-01-07T02:18:55;100764.47;;;3.20;100.00
43125;BME280;49182;50.788;7.318;2024-01-07T02:24:06;100803.94;;;3.46;100.00
43125;BME280;49182;50.788;7.318;2024-01-07T02:29:07;100802.84;;;3.50;100.00
43125;BME280;49182;50.788;7.318;2024-01-07T02:34:10;100815.84;;;3.51;100.00
43125;BME280;49182;50.788;7.318;2024-01-07T02:39:14;100814.13;;;3.50;100.00
43125;BME280;49182;50.788;7.318;2024-01-07T02:44:15;100814.38;;;3.46;100.00
43125;BME280;49182;50.788;7.318;2024-01-07T02:49:17;100812.59;;;3.46;100.00
43125;BME280;49182;50.788;7.318;2024-01-07T02:54:20;100820.28;;;3.49;100.00
43125;BME280;49182;50.788;7.318;2024-01-07T02:59:22;100823.81;;;3.48;100.00
43125;BME280;49182;50.788;7.318;2024-01-07T03:04:24;100831.81;;;3.45;100.00
43125;BME280;49182;50.788;7.318;2024-01-07T03:09:27;100825.50;;;3.49;100.00
43125;BME280;49182;50.788;7.318;2024-01-07T03:14:29;100835.09;;;3.49;100.00
43125;BME280;49182;50.788;7.318;2024-01-07T03:19:30;100792.66;;;3.30;100.00
43125;BME280;49182;50.788;7.318;2024-01-07T03:24:33;100828.25;;;3.46;100.00
43125;BME280;49182;50.788;7.318;2024-01-07T03:29:35;100843.44;;;3.55;100.00
43125;BME280;49182;50.788;7.318;2024-01-07T03:34:38;100837.44;;;3.53;100.00
43125;BME280;49182;50.788;7.318;2024-01-07T03:39:41;100840.06;;;3.53;100.00
43125;BME280;49182;50.788;7.318;2024-01-07T03:44:43;100841.25;;;3.48;100.00
43125;BME280;49182;50.788;7.318;2024-01-07T03:49:45;100812.09;;;3.24;100.00
43125;BME280;49182;50.788;7.318;2024-01-07T03:54:48;100847.16;;;3.51;100.00
43125;BME280;49182;50.788;7.318;2024-01-07T03:59:50;100849.06;;;3.48;100.00
43125;BME280;49182;50.788;7.318;2024-01-07T04:04:52;100856.25;;;3.44;100.00
43125;BME280;49182;50.788;7.318;2024-01-07T04:09:55;100849.59;;;3.39;100.00
43125;BME280;49182;50.788;7.318;2024-01-07T04:14:57;100855.38;;;3.44;100.00
43125;BME280;49182;50.788;7.318;2024-01-07T04:19:58;100862.97;;;3.33;100.00
43125;BME280;49182;50.788;7.318;2024-01-07T04:25:02;100865.78;;;3.28;100.00
43125;BME280;49182;50.788;7.318;2024-01-07T04:30:05;100873.28;;;3.34;100.00
43125;BME280;49182;50.788;7.318;2024-01-07T04:35:07;100874.47;;;3.29;100.00
43125;BME280;49182;50.788;7.318;2024-01-07T04:40:12;100884.31;;;3.23;100.00
43125;BME280;49182;50.788;7.318;2024-01-07T04:45:13;100886.91;;;3.23;100.00
43125;BME280;49182;50.788;7.318;2024-01-07T04:50:15;100894.81;;;3.22;100.00
43125;BME280;49182;50.788;7.318;2024-01-07T04:55:18;100897.53;;;3.20;100.00
43125;BME280;49182;50.788;7.318;2024-01-07T05:00:20;100897.09;;;3.12;100.00
43125;BME280;49182;50.788;7.318;2024-01-07T05:05:22;100899.84;;;3.09;100.00
43125;BME280;49182;50.788;7.318;2024-01-07T05:10:25;100914.81;;;3.06;100.00
43125;BME280;49182;50.788;7.318;2024-01-07T05:15:27;100916.88;;;2.99;100.00
43125;BME280;49182;50.788;7.318;2024-01-07T05:20:28;100907.97;;;3.03;100.00
43125;BME280;49182;50.788;7.318;2024-01-07T05:25:31;100921.88;;;3.04;100.00
43125;BME280;49182;50.788;7.318;2024-01-07T05:30:33;100917.81;;;2.98;100.00
43125;BME280;49182;50.788;7.318;2024-01-07T05:35:35;100872.81;;;2.60;100.00
43125;BME280;49182;50.788;7.318;2024-01-07T05:40:38;100936.00;;;3.00;100.00
43125;BME280;49182;50.788;7.318;2024-01-07T05:45:40;100935.59;;;2.90;100.00
43125;BME280;49182;50.788;7.318;2024-01-07T05:50:41;100954.25;;;3.00;100.00
43125;BME280;49182;50.788;7.318;2024-01-07T05:55:44;100949.88;;;3.00;100.00
43125;BME280;49182;50.788;7.318;2024-01-07T06:00:46;100954.25;;;3.00;100.00
43125;BME280;49182;50.788;7.318;2024-01-07T06:05:48;100933.91;;;2.72;100.00
43125;BME280;49182;50.788;7.318;2024-01-07T06:10:51;100966.88;;;2.90;100.00
43125;BME280;49182;50.788;7.318;2024-01-07T06:15:53;100954.25;;;2.82;100.00
43125;BME280;49182;50.788;7.318;2024-01-07T06:20:55;100936.94;;;2.64;100.00
43125;BME280;49182;50.788;7.318;2024-01-07T06:25:58;100985.31;;;2.87;100.00
43125;BME280;49182;50.788;7.318;2024-01-07T06:31:02;100998.34;;;2.87;100.00
43125;BME280;49182;50.788;7.318;2024-01-07T06:36:04;101000.88;;;2.89;100.00
43125;BME280;49182;50.788;7.318;2024-01-07T06:41:09;100998.97;;;2.92;100.00
43125;BME280;49182;50.788;7.318;2024-01-07T06:46:11;101004.59;;;3.02;100.00
43125;BME280;49182;50.788;7.318;2024-01-07T06:51:14;100969.66;;;2.70;100.00
43125;BME280;49182;50.788;7.318;2024-01-07T06:56:17;101020.53;;;2.96;100.00
43125;BME280;49182;50.788;7.318;2024-01-07T07:01:20;101036.31;;;2.93;100.00
43125;BME280;49182;50.788;7.318;2024-01-07T07:06:22;101045.91;;;2.92;100.00
43125;BME280;49182;50.788;7.318;2024-01-07T07:11:25;101052.25;;;2.87;100.00
43125;BME280;49182;50.788;7.318;2024-01-07T07:16:26;101025.47;;;2.66;100.00
43125;BME280;49182;50.788;7.318;2024-01-07T07:21:28;101031.69;;;2.63;100.00
43125;BME280;49182;50.788;7.318;2024-01-07T07:26:31;101062.38;;;2.75;100.00
43125;BME280;49182;50.788;7.318;2024-01-07T07:31:33;101080.00;;;2.70;100.00
43125;BME280;49182;50.788;7.318;2024-01-07T07:36:35;101080.75;;;2.72;100.00
43125;BME280;49182;50.788;7.318;2024-01-07T07:41:38;101078.38;;;2.68;100.00
43125;BME280;49182;50.788;7.318;2024-01-07T07:46:42;101096.34;;;2.74;100.00
43125;BME280;49182;50.788;7.318;2024-01-07T07:51:44;101097.78;;;2.79;100.00
43125;BME280;49182;50.788;7.318;2024-01-07T07:56:47;101099.94;;;2.71;100.00
43125;BME280;49182;50.788;7.318;2024-01-07T08:01:49;101111.63;;;2.81;100.00
43125;BME280;49182;50.788;7.318;2024-01-07T08:06:52;101117.81;;;2.79;100.00
43125;BME280;49182;50.788;7.318;2024-01-07T08:11:55;101119.50;;;2.80;100.00
43125;BME280;49182;50.788;7.318;2024-01-07T08:16:56;101094.53;;;2.57;100.00
43125;BME280;49182;50.788;7.318;2024-01-07T08:21:58;101133.38;;;2.80;100.00
43125;BME280;49182;50.788;7.318;2024-01-07T08:27:02;101070.94;;;2.41;100.00
43125;BME280;49182;50.788;7.318;2024-01-07T08:32:04;101148.97;;;2.82;100.00
43125;BME280;49182;50.788;7.318;2024-01-07T08:37:07;101152.25;;;2.85;100.00
43125;BME280;49182;50.788;7.318;2024-01-07T08:42:10;101162.84;;;2.82;100.00
43125;BME280;49182;50.788;7.318;2024-01-07T08:47:11;101155.44;;;2.92;100.00
43125;BME280;49182;50.788;7.318;2024-01-07T08:52:13;101167.56;;;2.93;100.00
43125;BME280;49182;50.788;7.318;2024-01-07T08:57:16;101160.03;;;2.87;100.00
43125;BME280;49182;50.788;7.318;2024-01-07T09:02:18;101177.84;;;2.96;99.48
43125;BME280;49182;50.788;7.318;2024-01-07T09:07:20;101187.50;;;2.94;99.60
43125;BME280;49182;50.788;7.318;2024-01-07T09:12:23;101195.63;;;2.88;99.79
43125;BME280;49182;50.788;7.318;2024-01-07T09:17:25;101206.91;;;2.89;100.00
43125;BME280;49182;50.788;7.318;2024-01-07T09:22:26;101217.31;;;2.89;99.66
43125;BME280;49182;50.788;7.318;2024-01-07T09:27:29;101218.25;;;2.88;99.52
43125;BME280;49182;50.788;7.318;2024-01-07T09:32:31;101224.94;;;2.93;98.55
43125;BME280;49182;50.788;7.318;2024-01-07T09:37:37;101246.84;;;2.89;98.51
43125;BME280;49182;50.788;7.318;2024-01-07T09:42:41;101230.38;;;2.89;97.66
43125;BME280;49182;50.788;7.318;2024-01-07T09:47:44;101234.00;;;2.84;98.23
43125;BME280;49182;50.788;7.318;2024-01-07T09:52:46;101238.47;;;2.82;99.34
43125;BME280;49182;50.788;7.318;2024-01-07T09:57:49;101238.88;;;2.92;96.82
43125;BME280;49182;50.788;7.318;2024-01-07T10:02:51;101242.63;;;2.87;97.85
43125;BME280;49182;50.788;7.318;2024-01-07T10:07:53;101243.81;;;2.98;98.10
43125;BME280;49182;50.788;7.318;2024-01-07T10:12:56;101249.88;;;2.99;97.48
43125;BME280;49182;50.788;7.318;2024-01-07T10:18:03;101249.47;;;3.08;96.98
43125;BME280;49182;50.788;7.318;2024-01-07T10:23:05;101252.53;;;3.16;96.46
43125;BME280;49182;50.788;7.318;2024-01-07T10:28:08;101253.97;;;3.23;94.68
43125;BME280;49182;50.788;7.318;2024-01-07T10:33:10;101256.84;;;3.17;93.56
43125;BME280;49182;50.788;7.318;2024-01-07T10:38:11;101248.63;;;3.07;94.03
43125;BME280;49182;50.788;7.318;2024-01-07T10:43:15;101254.13;;;3.20;95.18
43125;BME280;49182;50.788;7.318;2024-01-07T10:48:17;101150.56;;;2.84;91.58
43125;BME280;49182;50.788;7.318;2024-01-07T10:53:21;101260.28;;;3.36;93.17
43125;BME280;49182;50.788;7.318;2024-01-07T10:58:26;101265.44;;;3.38;93.73
43125;BME280;49182;50.788;7.318;2024-01-07T11:03:32;101267.91;;;3.41;93.62
43125;BME280;49182;50.788;7.318;2024-01-07T11:08:41;101192.09;;;2.89;92.68
43125;BME280;49182;50.788;7.318;2024-01-07T11:13:46;101274.31;;;3.34;92.95
43125;BME280;49182;50.788;7.318;2024-01-07T11:18:50;101275.09;;;3.36;90.79
43125;BME280;49182;50.788;7.318;2024-01-07T11:23:52;101277.44;;;3.42;88.83
43125;BME280;49182;50.788;7.318;2024-01-07T11:28:56;101283.78;;;3.36;89.41
43125;BME280;49182;50.788;7.318;2024-01-07T11:33:58;101287.66;;;3.28;89.72
43125;BME280;49182;50.788;7.318;2024-01-07T11:39:00;101289.97;;;3.34;88.71
43125;BME280;49182;50.788;7.318;2024-01-07T11:44:04;101283.44;;;3.25;89.11
43125;BME280;49182;50.788;7.318;2024-01-07T11:49:08;101287.47;;;3.32;88.48
43125;BME280;49182;50.788;7.318;2024-01-07T11:54:11;101289.34;;;3.29;87.28
43125;BME280;49182;50.788;7.318;2024-01-07T11:59:14;101287.66;;;3.28;88.78
43125;BME280;49182;50.788;7.318;2024-01-07T12:04:16;101294.22;;;3.36;88.94
43125;BME280;49182;50.788;7.318;2024-01-07T12:09:18;101302.22;;;3.33;89.15
43125;BME280;49182;50.788;7.318;2024-01-07T12:14:21;101290.69;;;3.37;88.90
43125;BME280;49182;50.788;7.318;2024-01-07T12:19:23;101300.06;;;3.41;88.07
43125;BME280;49182;50.788;7.318;2024-01-07T12:24:25;101261.78;;;3.23;85.93
43125;BME280;49182;50.788;7.318;2024-01-07T12:29:28;101302.97;;;3.35;86.72
43125;BME280;49182;50.788;7.318;2024-01-07T12:34:30;101312.00;;;3.28;87.75
43125;BME280;49182;50.788;7.318;2024-01-07T12:39:32;101314.97;;;3.20;87.97
43125;BME280;49182;50.788;7.318;2024-01-07T12:44:36;101317.38;;;3.25;88.49
43125;BME280;49182;50.788;7.318;2024-01-07T12:49:37;101316.06;;;3.15;88.01
43125;BME280;49182;50.788;7.318;2024-01-07T12:54:39;101320.53;;;3.13;88.40
43125;BME280;49182;50.788;7.318;2024-01-07T12:59:42;101320.25;;;3.19;88.04
43125;BME280;49182;50.788;7.318;2024-01-07T13:04:44;101319.41;;;3.18;87.05
43125;BME280;49182;50.788;7.318;2024-01-07T13:09:46;101323.84;;;3.16;87.03
43125;BME280;49182;50.788;7.318;2024-01-07T13:14:50;101329.66;;;3.03;85.65
43125;BME280;49182;50.788;7.318;2024-01-07T13:19:51;101347.22;;;2.99;84.13
43125;BME280;49182;50.788;7.318;2024-01-07T13:24:53;101347.72;;;2.89;84.38
43125;BME280;49182;50.788;7.318;2024-01-07T13:29:57;101362.50;;;2.88;83.80
43125;BME280;49182;50.788;7.318;2024-01-07T13:34:58;101366.81;;;2.89;83.37
43125;BME280;49182;50.788;7.318;2024-01-07T13:40:00;101376.56;;;2.65;82.94
43125;BME280;49182;50.788;7.318;2024-01-07T13:45:05;101381.09;;;2.60;83.27
43125;BME280;49182;50.788;7.318;2024-01-07T13:50:07;101397.31;;;2.47;83.57
43125;BME280;49182;50.788;7.318;2024-01-07T13:55:09;101363.78;;;2.17;81.91
43125;BME280;49182;50.788;7.318;2024-01-07T14:00:14;101414.44;;;2.32;82.73
43125;BME280;49182;50.788;7.318;2024-01-07T14:05:16;101421.69;;;2.24;83.15
43125;BME280;49182;50.788;7.318;2024-01-07T14:10:20;101427.16;;;2.18;81.85
43125;BME280;49182;50.788;7.318;2024-01-07T14:15:24;101418.38;;;2.20;82.51
43125;BME280;49182;50.788;7.318;2024-01-07T14:20:25;101442.25;;;2.10;81.93
43125;BME280;49182;50.788;7.318;2024-01-07T14:25:27;101441.03;;;1.96;80.66
43125;BME280;49182;50.788;7.318;2024-01-07T14:30:30;101459.25;;;1.96;80.17
43125;BME280;49182;50.788;7.318;2024-01-07T14:35:32;101439.47;;;1.69;79.83
43125;BME280;49182;50.788;7.318;2024-01-07T14:40:34;101487.72;;;1.54;81.17
43125;BME280;49182;50.788;7.318;2024-01-07T14:45:37;101493.03;;;1.51;80.31
43125;BME280;49182;50.788;7.318;2024-01-07T14:50:39;101495.22;;;1.39;80.00
43125;BME280;49182;50.788;7.318;2024-01-07T14:55:42;101501.81;;;1.24;78.22
43125;BME280;49182;50.788;7.318;2024-01-07T15:00:46;101510.53;;;0.98;78.10
43125;BME280;49182;50.788;7.318;2024-01-07T15:05:48;101531.06;;;0.79;79.21
43125;BME280;49182;50.788;7.318;2024-01-07T15:10:50;101533.03;;;0.73;77.78
43125;BME280;49182;50.788;7.318;2024-01-07T15:15:53;101540.19;;;0.65;76.60
43125;BME280;49182;50.788;7.318;2024-01-07T15:20:55;101557.97;;;0.51;78.23
43125;BME280;49182;50.788;7.318;2024-01-07T15:25:56;101567.88;;;0.38;78.25
43125;BME280;49182;50.788;7.318;2024-01-07T15:30:59;101561.03;;;0.35;77.96
43125;BME280;49182;50.788;7.318;2024-01-07T15:36:02;101582.22;;;0.22;73.86
43125;BME280;49182;50.788;7.318;2024-01-07T15:41:04;101600.94;;;0.04;73.93
43125;BME280;49182;50.788;7.318;2024-01-07T15:46:07;101598.00;;;-0.15;75.11
43125;BME280;49182;50.788;7.318;2024-01-07T15:51:09;101604.69;;;-0.07;73.33
43125;BME280;49182;50.788;7.318;2024-01-07T15:56:13;101615.47;;;-0.22;74.62
43125;BME280;49182;50.788;7.318;2024-01-07T16:01:16;101625.94;;;-0.25;73.47
43125;BME280;49182;50.788;7.318;2024-01-07T16:06:18;101641.50;;;-0.25;72.65
43125;BME280;49182;50.788;7.318;2024-01-07T16:11:20;101657.28;;;-0.32;73.44
43125;BME280;49182;50.788;7.318;2024-01-07T16:16:23;101667.00;;;-0.41;73.98
43125;BME280;49182;50.788;7.318;2024-01-07T16:21:25;101663.16;;;-0.60;75.21
43125;BME280;49182;50.788;7.318;2024-01-07T16:26:26;101686.03;;;-0.42;74.74
43125;BME280;49182;50.788;7.318;2024-01-07T16:31:31;101698.88;;;-0.37;74.04
43125;BME280;49182;50.788;7.318;2024-01-07T16:36:33;101693.47;;;-0.28;75.02
43125;BME280;49182;50.788;7.318;2024-01-07T16:41:35;101697.69;;;-0.24;74.05
43125;BME280;49182;50.788;7.318;2024-01-07T16:46:38;101713.22;;;-0.22;72.95
43125;BME280;49182;50.788;7.318;2024-01-07T16:51:40;101637.47;;;-0.69;72.21
43125;BME280;49182;50.788;7.318;2024-01-07T16:56:42;101725.31;;;-0.21;68.72
43125;BME280;49182;50.788;7.318;2024-01-07T17:01:45;101721.31;;;-0.34;69.58
43125;BME280;49182;50.788;7.318;2024-01-07T17:06:46;101718.75;;;-0.36;69.51
43125;BME280;49182;50.788;7.318;2024-01-07T17:11:48;101717.44;;;-0.52;69.89
43125;BME280;49182;50.788;7.318;2024-01-07T17:16:51;101730.38;;;-0.51;70.61
43125;BME280;49182;50.788;7.318;2024-01-07T17:21:53;101740.66;;;-0.48;70.58
43125;BME280;49182;50.788;7.318;2024-01-07T17:26:55;101744.97;;;-0.47;70.21
43125;BME280;49182;50.788;7.318;2024-01-07T17:31:59;101755.19;;;-0.41;69.99
43125;BME280;49182;50.788;7.318;2024-01-07T17:37:01;101748.41;;;-0.46;71.89
43125;BME280;49182;50.788;7.318;2024-01-07T17:42:04;101752.59;;;-0.41;70.87
43125;BME280;49182;50.788;7.318;2024-01-07T17:47:07;101757.56;;;-0.31;69.93
43125;BME280;49182;50.788;7.318;2024-01-07T17:52:08;101762.81;;;-0.34;70.15
43125;BME280;49182;50.788;7.318;2024-01-07T17:57:10;101760.16;;;-0.31;69.84
43125;BME280;49182;50.788;7.318;2024-01-07T18:02:13;101773.06;;;-0.28;70.17
43125;BME280;49182;50.788;7.318;2024-01-07T18:07:16;101766.16;;;-0.29;71.12
43125;BME280;49182;50.788;7.318;2024-01-07T18:12:18;101780.81;;;-0.27;71.77
43125;BME280;49182;50.788;7.318;2024-01-07T18:17:21;101768.81;;;-0.31;71.59
43125;BME280;49182;50.788;7.318;2024-01-07T18:22:23;101785.88;;;-0.22;72.46
43125;BME280;49182;50.788;7.318;2024-01-07T18:27:24;101780.63;;;-0.19;71.54
43125;BME280;49182;50.788;7.318;2024-01-07T18:32:28;101774.53;;;-0.18;72.20
43125;BME280;49182;50.788;7.318;2024-01-07T18:37:29;101690.19;;;-0.70;71.09
43125;BME280;49182;50.788;7.318;2024-01-07T18:42:31;101792.66;;;-0.17;71.59
43125;BME280;49182;50.788;7.318;2024-01-07T18:47:34;101789.03;;;-0.10;71.31
43125;BME280;49182;50.788;7.318;2024-01-07T18:52:36;101801.19;;;-0.12;72.58
43125;BME280;49182;50.788;7.318;2024-01-07T18:57:38;101803.69;;;-0.07;71.90
43125;BME280;49182;50.788;7.318;2024-01-07T19:02:41;101803.41;;;0.04;71.21
43125;BME280;49182;50.788;7.318;2024-01-07T19:07:43;101810.38;;;0.02;72.98
43125;BME280;49182;50.788;7.318;2024-01-07T19:12:45;101813.81;;;0.02;71.64
43125;BME280;49182;50.788;7.318;2024-01-07T19:17:48;101811.25;;;0.00;68.75
43125;BME280;49182;50.788;7.318;2024-01-07T19:22:50;101813.91;;;-0.01;69.85
43125;BME280;49182;50.788;7.318;2024-01-07T19:27:51;101829.63;;;-0.07;70.63
43125;BME280;49182;50.788;7.318;2024-01-07T19:32:54;101833.16;;;-0.10;70.00
43125;BME280;49182;50.788;7.318;2024-01-07T19:37:56;101830.38;;;-0.02;70.23
43125;BME280;49182;50.788;7.318;2024-01-07T19:42:58;101832.81;;;0.04;67.54
43125;BME280;49182;50.788;7.318;2024-01-07T19:48:01;101850.09;;;0.05;66.87
43125;BME280;49182;50.788;7.318;2024-01-07T19:53:03;101840.78;;;-0.04;68.59
43125;BME280;49182;50.788;7.318;2024-01-07T19:58:15;101835.69;;;-0.07;68.37
43125;BME280;49182;50.788;7.318;2024-01-07T20:03:18;101834.84;;;-0.09;69.98
43125;BME280;49182;50.788;7.318;2024-01-07T20:08:20;101839.75;;;0.04;68.76
43125;BME280;49182;50.788;7.318;2024-01-07T20:13:21;101843.22;;;0.03;69.00
43125;BME280;49182;50.788;7.318;2024-01-07T20:18:24;101838.22;;;-0.05;68.63
43125;BME280;49182;50.788;7.318;2024-01-07T20:23:26;101841.63;;;-0.02;69.45
43125;BME280;49182;50.788;7.318;2024-01-07T20:28:28;101847.81;;;-0.07;68.63
43125;BME280;49182;50.788;7.318;2024-01-07T20:33:31;101845.34;;;-0.13;67.61
43125;BME280;49182;50.788;7.318;2024-01-07T20:38:33;101836.00;;;-0.20;67.23
43125;BME280;49182;50.788;7.318;2024-01-07T20:43:35;101861.72;;;-0.11;65.92
43125;BME280;49182;50.788;7.318;2024-01-07T20:48:38;101855.78;;;-0.16;65.67
43125;BME280;49182;50.788;7.318;2024-01-07T20:53:40;101759.25;;;-0.66;64.37
43125;BME280;49182;50.788;7.318;2024-01-07T20:58:42;101866.13;;;-0.13;64.43
43125;BME280;49182;50.788;7.318;2024-01-07T21:03:45;101868.03;;;-0.21;65.55
43125;BME280;49182;50.788;7.318;2024-01-07T21:08:47;101862.94;;;-0.26;65.53
43125;BME280;49182;50.788;7.318;2024-01-07T21:13:49;101862.13;;;-0.28;66.02
43125;BME280;49182;50.788;7.318;2024-01-07T21:18:52;101830.53;;;-0.45;66.57
43125;BME280;49182;50.788;7.318;2024-01-07T21:23:54;101859.41;;;-0.23;65.88
43125;BME280;49182;50.788;7.318;2024-01-07T21:28:55;101864.69;;;-0.26;67.49
43125;BME280;49182;50.788;7.318;2024-01-07T21:33:58;101868.88;;;-0.21;67.00
43125;BME280;49182;50.788;7.318;2024-01-07T21:39:00;101863.72;;;-0.22;67.37
43125;BME280;49182;50.788;7.318;2024-01-07T21:44:02;101845.59;;;-0.24;66.07
43125;BME280;49182;50.788;7.318;2024-01-07T21:49:05;101867.84;;;-0.14;65.73
43125;BME280;49182;50.788;7.318;2024-01-07T21:54:07;101872.31;;;-0.19;67.29
43125;BME280;49182;50.788;7.318;2024-01-07T21:59:08;101875.00;;;-0.23;68.10
43125;BME280;49182;50.788;7.318;2024-01-07T22:04:11;101871.38;;;-0.16;66.37
43125;BME280;49182;50.788;7.318;2024-01-07T22:09:14;101844.97;;;-0.35;68.48
43125;BME280;49182;50.788;7.318;2024-01-07T22:14:15;101865.50;;;-0.24;68.94
43125;BME280;49182;50.788;7.318;2024-01-07T22:19:18;101880.78;;;-0.12;69.19
43125;BME280;49182;50.788;7.318;2024-01-07T22:24:20;101881.72;;;-0.15;68.46
43125;BME280;49182;50.788;7.318;2024-01-07T22:29:22;101884.47;;;-0.22;69.32
43125;BME280;49182;50.788;7.318;2024-01-07T22:34:25;101874.06;;;-0.21;68.81
43125;BME280;49182;50.788;7.318;2024-01-07T22:39:27;101879.41;;;-0.27;67.34
43125;BME280;49182;50.788;7.318;2024-01-07T22:44:29;101886.59;;;-0.38;68.49
43125;BME280;49182;50.788;7.318;2024-01-07T22:49:32;101884.72;;;-0.31;68.44
43125;BME280;49182;50.788;7.318;2024-01-07T22:54:37;101895.03;;;-0.30;67.21
43125;BME280;49182;50.788;7.318;2024-01-07T22:59:38;101900.34;;;-0.36;67.97
43125;BME280;49182;50.788;7.318;2024-01-07T23:04:42;101903.88;;;-0.38;68.50
43125;BME280;49182;50.788;7.318;2024-01-07T23:09:44;101904.75;;;-0.39;69.21
43125;BME280;49182;50.788;7.318;2024-01-07T23:14:46;101895.28;;;-0.41;68.77
43125;BME280;49182;50.788;7.318;2024-01-07T23:19:48;101901.34;;;-0.42;69.83
43125;BME280;49182;50.788;7.318;2024-01-07T23:24:50;101907.34;;;-0.39;69.63
43125;BME280;49182;50.788;7.318;2024-01-07T23:29:52;101911.72;;;-0.42;68.66
43125;BME280;49182;50.788;7.318;2024-01-07T23:34:55;101911.66;;;-0.38;69.00
43125;BME280;49182;50.788;7.318;2024-01-07T23:39:57;101921.28;;;-0.44;68.96
43125;BME280;49182;50.788;7.318;2024-01-07T23:44:59;101917.03;;;-0.48;68.90
43125;BME280;49182;50.788;7.318;2024-01-07T23:50:03;101930.81;;;-0.44;68.82
43125;BME280;49182;50.788;7.318;2024-01-07T23:55:05;101931.63;;;-0.42;68.46
